Time;durP1;ratioP1;P1;durP2;ratioP2;P2;SDS_P1;SDS_P2;PMS_P1;PMS_P2;Temp;Humidity;BMP_temperature;BMP_pressure;BME280_temperature;BME280_humidity;BME280_pressure;Samples;Min_cycle;Max_cycle;Signal;HPM_P1;HPM_P2
2021/07/06 00:01:53;;;;;;;;;;;;;;;26.13;67.40;100366.91;5032949;28;1685;-70
2021/07/06 00:04:38;;;;;;;;;;;;;;;26.06;68.14;100366.63;5042944;28;1760;-71
2021/07/06 00:07:24;;;;;;;;;;;;;;;26.00;69.20;100363.69;5025917;28;644;-72
2021/07/06 00:10:10;;;;;;;;;;;;;;;26.04;69.23;100357.09;5026320;28;1170;-70
2021/07/06 00:12:55;;;;;;;;;;;;;;;26.04;69.46;100362.41;5028051;28;1906;-69
2021/07/06 00:15:40;;;;;;;;;;;;;;;25.99;69.69;100364.69;5030226;28;1162;-69
2021/07/06 00:18:25;;;;;;;;;;;;;;;26.05;70.00;100366.78;5029710;28;1385;-71
2021/07/06 00:21:11;;;;;;;;;;;;;;;26.04;69.88;100357.09;5029946;28;1175;-71
2021/07/06 00:23:56;;;;;;;;;;;;;;;26.08;69.72;100361.16;5031689;28;1327;-73
2021/07/06 00:26:42;;;;;;;;;;;;;;;26.05;69.71;100358.78;5032050;28;1134;-72
2021/07/06 00:29:27;;;;;;;;;;;;;;;25.97;70.07;100355.97;5032013;28;1327;-71
2021/07/06 00:32:13;;;;;;;;;;;;;;;26.06;70.02;100352.44;5031427;28;1902;-71
2021/07/06 00:34:58;;;;;;;;;;;;;;;25.97;70.43;100354.13;5030797;28;935;-72
2021/07/06 00:37:44;;;;;;;;;;;;;;;26.02;69.86;100351.06;5031461;28;1315;-72
2021/07/06 00:40:29;;;;;;;;;;;;;;;25.96;70.10;100354.31;5031210;28;1122;-72
2021/07/06 00:43:15;;;;;;;;;;;;;;;26.01;69.84;100352.88;5031405;28;1253;-72
2021/07/06 00:46:00;;;;;;;;;;;;;;;25.99;69.67;100340.66;5031584;28;1139;-72
2021/07/06 00:48:45;;;;;;;;;;;;;;;25.97;69.94;100343.47;5031135;28;1272;-70
2021/07/06 00:51:31;;;;;;;;;;;;;;;26.00;69.79;100331.66;5030850;28;1120;-72
2021/07/06 00:54:16;;;;;;;;;;;;;;;25.87;70.54;100333.81;5031154;28;1352;-70
2021/07/06 00:57:01;;;;;;;;;;;;;;;25.88;70.48;100328.31;5031036;28;651;-70
2021/07/06 00:59:47;;;;;;;;;;;;;;;25.88;70.00;100333.66;5030991;28;1284;-70
2021/07/06 01:02:32;;;;;;;;;;;;;;;25.91;70.31;100327.19;5031310;28;1217;-70
2021/07/06 01:05:22;;;;;;;;;;;;;;;25.78;69.91;100321.28;5031183;28;1030;-71
2021/07/06 01:08:07;;;;;;;;;;;;;;;25.79;70.48;100321.16;5030958;28;1384;-74
2021/07/06 01:10:52;;;;;;;;;;;;;;;25.76;70.21;100321.44;5031509;28;1134;-71
2021/07/06 01:13:38;;;;;;;;;;;;;;;25.85;69.70;100314.41;5030791;28;1901;-71
2021/07/06 01:16:23;;;;;;;;;;;;;;;25.88;69.40;100309.63;5031094;28;1161;-72
2021/07/06 01:19:10;;;;;;;;;;;;;;;25.86;69.58;100305.44;5030506;28;1291;-72
2021/07/06 01:22:00;;;;;;;;;;;;;;;25.81;69.81;100305.00;5043408;28;954;-72
2021/07/06 01:24:46;;;;;;;;;;;;;;;25.87;69.47;100315.13;5029309;28;1356;-74
2021/07/06 01:27:31;;;;;;;;;;;;;;;25.79;69.82;100306.97;5030769;28;1234;-74
2021/07/06 01:30:17;;;;;;;;;;;;;;;25.77;70.24;100304.47;5030311;28;926;-74
2021/07/06 01:33:02;;;;;;;;;;;;;;;25.86;69.30;100313.44;5030898;28;1922;-74
2021/07/06 01:35:57;;;;;;;;;;;;;;;25.89;69.07;100308.66;5030710;28;1109;-75
2021/07/06 01:38:42;;;;;;;;;;;;;;;25.90;69.38;100304.16;5030210;28;1260;-74
2021/07/06 01:41:27;;;;;;;;;;;;;;;25.85;69.84;100306.41;5030877;28;1130;-74
2021/07/06 01:44:19;;;;;;;;;;;;;;;25.81;70.61;100310.34;5029400;28;1387;-74
2021/07/06 01:47:04;;;;;;;;;;;;;;;25.85;69.94;100309.06;5030558;28;612;-74
2021/07/06 01:49:50;;;;;;;;;;;;;;;25.75;70.59;100301.09;5042674;28;1468;-73
2021/07/06 01:52:39;;;;;;;;;;;;;;;25.83;69.95;100314.56;5029971;28;1965;-75
2021/07/06 01:55:26;;;;;;;;;;;;;;;25.84;69.94;100307.41;5030504;28;1063;-72
2021/07/06 01:58:13;;;;;;;;;;;;;;;25.77;70.23;100298.28;5029852;28;1274;-71
2021/07/06 02:00:59;;;;;;;;;;;;;;;25.83;70.03;100297.72;5030102;28;1143;-71
2021/07/06 02:03:49;;;;;;;;;;;;;;;25.82;70.60;100301.34;5029878;28;1268;-70
2021/07/06 02:06:35;;;;;;;;;;;;;;;25.80;70.29;100300.66;5029551;28;951;-71
2021/07/06 02:09:20;;;;;;;;;;;;;;;25.71;71.03;100296.19;5029556;28;1264;-71
2021/07/06 02:12:05;;;;;;;;;;;;;;;25.65;71.40;100288.75;5029952;28;1898;-70
2021/07/06 02:14:51;;;;;;;;;;;;;;;25.68;70.98;100286.66;5029457;28;1070;-70
2021/07/06 02:17:36;;;;;;;;;;;;;;;25.70;71.06;100284.69;5029553;28;1348;-71
2021/07/06 02:20:22;;;;;;;;;;;;;;;25.79;70.84;100288.31;5029877;28;1100;-71
2021/07/06 02:23:07;;;;;;;;;;;;;;;25.74;70.79;100285.25;5043586;28;1280;-71
2021/07/06 02:25:53;;;;;;;;;;;;;;;25.74;70.28;100282.56;5035490;28;964;-72
2021/07/06 02:28:39;;;;;;;;;;;;;;;25.64;71.10;100276.41;5035923;28;1330;-70
2021/07/06 02:31:24;;;;;;;;;;;;;;;25.72;70.97;100268.50;5031678;28;1042;-70
2021/07/06 02:34:10;;;;;;;;;;;;;;;25.73;70.68;100267.53;5041968;28;1903;-72
2021/07/06 02:36:56;;;;;;;;;;;;;;;25.65;71.09;100270.09;5029565;28;966;-71
2021/07/06 02:39:41;;;;;;;;;;;;;;;25.64;71.36;100273.72;5028145;28;1386;-71
2021/07/06 02:42:26;;;;;;;;;;;;;;;25.65;70.90;100270.09;5028960;28;1276;-71
2021/07/06 02:45:13;;;;;;;;;;;;;;;25.64;70.83;100277.25;5029426;28;920;-71
2021/07/06 02:47:59;;;;;;;;;;;;;;;25.59;71.08;100263.50;5030264;28;1295;-72
2021/07/06 02:50:44;;;;;;;;;;;;;;;25.68;70.71;100262.66;5027622;28;1177;-72
2021/07/06 02:53:30;;;;;;;;;;;;;;;25.64;71.43;100255.91;5041942;28;1906;-73
2021/07/06 02:56:15;;;;;;;;;;;;;;;25.65;71.12;100256.75;5029326;28;950;-72
2021/07/06 02:59:01;;;;;;;;;;;;;;;25.64;70.14;100263.91;5041695;28;1365;-73
2021/07/06 03:01:46;;;;;;;;;;;;;;;25.59;71.39;100257.31;5041942;28;1078;-74
2021/07/06 03:04:32;;;;;;;;;;;;;;;25.66;70.86;100266.41;5028868;28;1274;-73
2021/07/06 03:07:17;;;;;;;;;;;;;;;25.58;71.55;100274.31;5029147;28;628;-72
2021/07/06 03:10:06;;;;;;;;;;;;;;;25.55;71.78;100272.78;5041516;28;971;-71
2021/07/06 03:12:52;;;;;;;;;;;;;;;25.52;71.87;100270.38;5041177;28;1902;-73
2021/07/06 03:15:38;;;;;;;;;;;;;;;25.57;71.33;100268.13;5028814;28;1029;-73
2021/07/06 03:18:24;;;;;;;;;;;;;;;25.57;71.64;100262.78;5028553;28;1344;-73
2021/07/06 03:21:09;;;;;;;;;;;;;;;25.52;71.94;100265.91;5028811;28;938;-73
2021/07/06 03:23:55;;;;;;;;;;;;;;;25.60;71.65;100269.66;5028470;28;1284;-73
2021/07/06 03:26:40;;;;;;;;;;;;;;;25.61;71.75;100272.19;5041249;28;1072;-72
2021/07/06 03:29:25;;;;;;;;;;;;;;;25.55;72.08;100275.44;5027925;28;1322;-72
2021/07/06 03:32:12;;;;;;;;;;;;;;;25.51;72.05;100272.22;5027883;28;651;-72
2021/07/06 03:34:57;;;;;;;;;;;;;;;25.56;71.76;100262.94;5028738;28;1065;-71
2021/07/06 03:37:42;;;;;;;;;;;;;;;25.56;71.98;100268.28;5041414;28;1276;-71
2021/07/06 03:40:28;;;;;;;;;;;;;;;25.56;71.67;100266.47;5028721;28;1051;-73
2021/07/06 03:43:14;;;;;;;;;;;;;;;25.56;71.93;100271.78;5028588;28;1386;-73
2021/07/06 03:45:59;;;;;;;;;;;;;;;25.60;71.50;100267.00;5028346;28;1094;-72
2021/07/06 03:48:44;;;;;;;;;;;;;;;25.58;71.95;100259.16;5027997;28;1288;-72
2021/07/06 03:51:31;;;;;;;;;;;;;;;25.56;72.12;100261.13;5027879;28;2049;-72
2021/07/06 03:54:16;;;;;;;;;;;;;;;25.51;72.25;100258.88;5028266;28;1906;-73
2021/07/06 03:57:01;;;;;;;;;;;;;;;25.55;71.66;100251.44;5028116;28;676;-74
2021/07/06 03:59:46;;;;;;;;;;;;;;;25.46;71.37;100254.91;5028073;28;1289;-74
2021/07/06 04:02:32;;;;;;;;;;;;;;;25.50;71.89;100259.03;5028073;28;1318;-74
2021/07/06 04:05:18;;;;;;;;;;;;;;;25.59;70.85;100258.19;5027896;28;1110;-73
2021/07/06 04:08:03;;;;;;;;;;;;;;;25.47;72.27;100254.75;5040631;28;1257;-73
2021/07/06 04:10:49;;;;;;;;;;;;;;;25.43;72.29;100258.72;5027910;28;1027;-73
2021/07/06 04:13:34;;;;;;;;;;;;;;;25.44;72.04;100264.91;5027682;28;1914;-73
2021/07/06 04:16:19;;;;;;;;;;;;;;;25.44;72.40;100265.72;5027964;28;1088;-73
2021/07/06 04:19:08;;;;;;;;;;;;;;;25.51;72.33;100269.53;5027950;28;1272;-72
2021/07/06 04:21:53;;;;;;;;;;;;;;;25.41;72.43;100276.66;5027933;28;1081;-73
2021/07/06 04:24:39;;;;;;;;;;;;;;;25.45;72.78;100283.41;5040971;28;1285;-71
2021/07/06 04:27:24;;;;;;;;;;;;;;;25.43;72.78;100284.53;5027778;28;1097;-73
2021/07/06 04:30:10;;;;;;;;;;;;;;;25.38;72.62;100286.78;5026803;28;688;-72
2021/07/06 04:32:55;;;;;;;;;;;;;;;25.39;72.63;100283.97;5027769;28;1906;-70
2021/07/06 04:35:40;;;;;;;;;;;;;;;25.50;71.81;100275.84;5027830;28;636;-73
2021/07/06 04:38:26;;;;;;;;;;;;;;;25.44;72.51;100279.03;5028253;28;1256;-72
2021/07/06 04:41:11;;;;;;;;;;;;;;;25.46;72.42;100282.44;5040678;28;640;-72
2021/07/06 04:43:56;;;;;;;;;;;;;;;25.46;72.20;100282.44;5028223;28;1198;-73
2021/07/06 04:46:42;;;;;;;;;;;;;;;25.40;72.31;100283.00;5027815;28;1105;-73
2021/07/06 04:49:28;;;;;;;;;;;;;;;25.40;72.64;100274.16;5027823;28;1242;-73
2021/07/06 04:52:14;;;;;;;;;;;;;;;25.46;72.33;100285.09;5027891;28;1010;-73
2021/07/06 04:54:59;;;;;;;;;;;;;;;25.36;72.75;100280.75;5027712;28;1910;-73
2021/07/06 04:57:45;;;;;;;;;;;;;;;25.45;72.01;100278.06;5028076;28;1267;-72
2021/07/06 05:00:31;;;;;;;;;;;;;;;25.45;72.23;100271.91;5031231;28;684;-72
2021/07/06 05:03:17;;;;;;;;;;;;;;;25.47;72.11;100280.63;5030072;28;1260;-71
2021/07/06 05:06:03;;;;;;;;;;;;;;;25.41;72.02;100284.66;5030965;28;722;-72
2021/07/06 05:08:48;;;;;;;;;;;;;;;25.47;72.15;100285.94;5031112;28;1260;-71
2021/07/06 05:11:33;;;;;;;;;;;;;;;25.45;72.26;100285.22;5030853;28;656;-70
2021/07/06 05:14:19;;;;;;;;;;;;;;;25.39;72.43;100272.47;5029265;28;1965;-71
2021/07/06 05:17:04;;;;;;;;;;;;;;;25.43;72.22;100282.72;5030879;28;1050;-70
2021/07/06 05:19:49;;;;;;;;;;;;;;;25.50;71.90;100270.50;5030690;28;1403;-70
2021/07/06 05:22:35;;;;;;;;;;;;;;;25.53;71.76;100288.09;5043283;28;1269;-70
2021/07/06 05:25:20;;;;;;;;;;;;;;;25.47;71.83;100280.63;5030893;28;720;-71
2021/07/06 05:28:06;;;;;;;;;;;;;;;25.40;72.11;100280.34;5030965;28;1282;-70
2021/07/06 05:30:51;;;;;;;;;;;;;;;25.47;72.00;100280.63;5043632;28;742;-72
2021/07/06 05:33:36;;;;;;;;;;;;;;;25.46;72.00;100279.78;5029411;28;1954;-70
2021/07/06 05:36:22;;;;;;;;;;;;;;;25.47;71.78;100276.09;5035679;28;1457;-73
2021/07/06 05:39:07;;;;;;;;;;;;;;;25.49;71.63;100279.50;5036069;28;1312;-73
2021/07/06 05:41:52;;;;;;;;;;;;;;;25.56;71.27;100285.13;5030790;28;939;-72
2021/07/06 05:44:39;;;;;;;;;;;;;;;25.56;71.29;100295.78;5030405;28;1308;-72
2021/07/06 05:47:25;;;;;;;;;;;;;;;25.51;71.41;100304.22;5030038;28;1250;-72
2021/07/06 05:50:12;;;;;;;;;;;;;;;25.54;70.92;100311.06;5030446;28;1613;-72
2021/07/06 05:52:57;;;;;;;;;;;;;;;25.58;71.25;100309.81;5030126;28;1260;-72
2021/07/06 05:55:43;;;;;;;;;;;;;;;25.69;70.57;100303.47;5030806;28;719;-73
2021/07/06 05:58:28;;;;;;;;;;;;;;;25.66;70.77;100314.44;5029293;28;1355;-73
2021/07/06 06:01:14;;;;;;;;;;;;;;;25.63;69.92;100309.38;5030159;28;604;-72
2021/07/06 06:04:00;;;;;;;;;;;;;;;25.56;70.25;100308.28;5029835;28;1379;-73
2021/07/06 06:06:46;;;;;;;;;;;;;;;25.63;68.84;100301.38;5030612;28;1076;-72
2021/07/06 06:09:33;;;;;;;;;;;;;;;25.62;69.70;100299.72;5042566;28;1388;-72
2021/07/06 06:12:18;;;;;;;;;;;;;;;25.67;69.23;100297.44;5029620;28;1141;-71
2021/07/06 06:15:05;;;;;;;;;;;;;;;25.63;69.59;100296.03;5029961;28;1902;-71
2021/07/06 06:17:50;;;;;;;;;;;;;;;25.61;69.11;100304.19;5028306;28;1343;-71
2021/07/06 06:20:35;;;;;;;;;;;;;;;25.68;68.90;100304.47;5029500;28;606;-73
2021/07/06 06:23:21;;;;;;;;;;;;;;;25.66;68.61;100309.09;5029843;28;1244;-72
2021/07/06 06:26:06;;;;;;;;;;;;;;;25.56;69.68;100306.47;5029352;28;707;-70
2021/07/06 06:28:51;;;;;;;;;;;;;;;25.63;68.70;100301.38;5029496;28;1350;-70
2021/07/06 06:31:37;;;;;;;;;;;;;;;25.70;69.13;100307.84;5029176;28;1058;-71
2021/07/06 06:34:22;;;;;;;;;;;;;;;25.76;69.10;100308.13;5033216;28;1993;-72
2021/07/06 06:37:07;;;;;;;;;;;;;;;25.81;68.77;100310.34;5031936;28;1119;-72
2021/07/06 06:39:53;;;;;;;;;;;;;;;25.85;68.45;100319.75;5031355;28;1508;-72
2021/07/06 06:42:38;;;;;;;;;;;;;;;25.88;68.37;100316.78;5028991;28;1318;-73
2021/07/06 06:45:24;;;;;;;;;;;;;;;25.87;68.32;100315.13;5028807;28;659;-70
2021/07/06 06:48:09;;;;;;;;;;;;;;;25.90;68.12;100325.53;5029120;28;1237;-73
2021/07/06 06:50:55;;;;;;;;;;;;;;;25.92;68.03;100326.22;5028936;28;1556;-71
2021/07/06 06:53:41;;;;;;;;;;;;;;;25.93;68.22;100322.56;5028838;28;1903;-73
2021/07/06 06:59:41;;;;;;;;;;;;;;;25.92;68.23;100323.53;5028106;28;1248;-74
2021/07/06 07:02:30;;;;;;;;;;;;;;;25.99;68.30;100322.00;5029512;28;1375;-72
2021/07/06 07:05:19;;;;;;;;;;;;;;;26.05;67.60;100324.91;5028938;28;911;-70
2021/07/06 07:08:04;;;;;;;;;;;;;;;26.05;68.12;100324.06;5031005;28;1603;-70
2021/07/06 07:10:50;;;;;;;;;;;;;;;26.08;68.01;100331.81;5042924;28;1507;-73
2021/07/06 07:13:35;;;;;;;;;;;;;;;26.07;67.84;100325.63;5034367;28;1906;-74
2021/07/06 07:16:21;;;;;;;;;;;;;;;26.07;67.37;100327.44;5036537;28;724;-71
2021/07/06 07:19:06;;;;;;;;;;;;;;;26.11;67.35;100331.50;5041902;28;1540;-72
2021/07/06 07:21:51;;;;;;;;;;;;;;;26.16;67.14;100339.94;5026926;28;629;-71
2021/07/06 07:24:36;;;;;;;;;;;;;;;26.20;66.75;100344.03;5028725;28;1295;-74
2021/07/06 07:27:21;;;;;;;;;;;;;;;26.24;66.47;100350.72;5028432;28;617;-70
2021/07/06 07:30:07;;;;;;;;;;;;;;;26.24;66.01;100348.06;5028216;28;1143;-71
2021/07/06 07:32:53;;;;;;;;;;;;;;;26.25;65.11;100355.09;5028356;28;1300;-71
2021/07/06 07:35:38;;;;;;;;;;;;;;;26.27;65.46;100354.94;5028159;28;1973;-68
2021/07/06 07:38:24;;;;;;;;;;;;;;;26.24;65.06;100356.06;5027714;28;1343;-70
2021/07/06 07:41:09;;;;;;;;;;;;;;;26.28;64.54;100360.16;5028155;28;738;-67
2021/07/06 07:43:54;;;;;;;;;;;;;;;26.31;64.69;100364.34;5044429;28;1296;-68
2021/07/06 07:46:40;;;;;;;;;;;;;;;26.34;64.02;100364.06;5046896;28;699;-68
2021/07/06 07:49:25;;;;;;;;;;;;;;;26.35;63.76;100361.25;5040063;28;1747;-71
2021/07/06 07:52:11;;;;;;;;;;;;;;;26.37;63.50;100359.28;5027900;28;1764;-71
2021/07/06 07:54:56;;;;;;;;;;;;;;;26.31;63.61;100351.84;5060155;28;1969;-69
2021/07/06 07:57:42;;;;;;;;;;;;;;;26.31;63.69;100349.19;5034222;28;1820;-75
2021/07/06 08:00:28;;;;;;;;;;;;;;;26.30;64.06;100352.81;5026753;28;947;-73
2021/07/06 08:03:13;;;;;;;;;;;;;;;26.34;63.81;100356.91;5026830;28;1369;-74
2021/07/06 08:06:01;;;;;;;;;;;;;;;26.35;63.52;100360.41;5035531;28;1839;-73
2021/07/06 08:08:49;;;;;;;;;;;;;;;26.33;63.31;100362.38;5047066;28;1280;-71
2021/07/06 08:11:34;;;;;;;;;;;;;;;26.36;62.90;100359.41;5046894;28;632;-71
2021/07/06 08:14:20;;;;;;;;;;;;;;;26.34;63.04;100359.56;5046438;28;1973;-69
2021/07/06 08:17:05;;;;;;;;;;;;;;;26.32;62.93;100358.88;5047344;28;680;-71
2021/07/06 08:19:52;;;;;;;;;;;;;;;26.38;62.94;100363.63;5059018;28;1204;-70
2021/07/06 08:22:38;;;;;;;;;;;;;;;26.39;63.29;100365.28;5035142;28;1630;-70
2021/07/06 08:25:25;;;;;;;;;;;;;;;26.40;62.85;100358.13;5045710;28;1116;-69
2021/07/06 08:28:11;;;;;;;;;;;;;;;26.48;63.19;100363.56;5046049;28;1276;-72
2021/07/06 08:30:56;;;;;;;;;;;;;;;26.46;62.80;100355.72;5046115;28;937;-69
2021/07/06 08:33:41;;;;;;;;;;;;;;;26.46;62.49;100358.41;5047907;28;1901;-70
2021/07/06 08:36:27;;;;;;;;;;;;;;;26.47;62.58;100362.75;5049999;28;619;-77
2021/07/06 08:39:12;;;;;;;;;;;;;;;26.49;62.40;100357.25;5050526;28;1287;-72
2021/07/06 08:42:00;;;;;;;;;;;;;;;26.53;62.73;100356.00;5049934;28;624;-68
2021/07/06 08:44:45;;;;;;;;;;;;;;;26.55;65.02;100364.69;5050134;28;1284;-68
2021/07/06 08:47:31;;;;;;;;;;;;;;;26.52;63.33;100360.47;5049478;28;1290;-70
2021/07/06 08:50:22;;;;;;;;;;;;;;;26.54;64.07;100357.66;5049428;28;1176;-72
2021/07/06 08:53:08;;;;;;;;;;;;;;;26.56;64.94;100361.88;5050123;28;1363;-67
2021/07/06 08:55:54;;;;;;;;;;;;;;;26.60;66.13;100368.59;5049605;28;1969;-65
2021/07/06 08:58:39;;;;;;;;;;;;;;;26.59;64.85;100356.25;5048570;28;1391;-67
2021/07/06 09:01:28;;;;;;;;;;;;;;;26.62;64.59;100363.13;5048440;28;750;-66
2021/07/06 09:04:13;;;;;;;;;;;;;;;26.61;65.18;100372.09;5048737;28;1268;-67
2021/07/06 09:06:58;;;;;;;;;;;;;;;26.59;64.24;100371.44;5048596;28;723;-67
2021/07/06 09:09:44;;;;;;;;;;;;;;;26.57;65.99;100368.88;5048866;28;1300;-67
2021/07/06 09:12:35;;;;;;;;;;;;;;;26.57;65.68;100371.56;5050260;28;1229;-66
2021/07/06 09:15:24;;;;;;;;;;;;;;;26.58;65.05;100375.06;5049398;28;1906;-67
2021/07/06 09:18:12;;;;;;;;;;;;;;;26.57;64.40;100373.38;5050320;28;1275;-67
2021/07/06 09:21:03;;;;;;;;;;;;;;;26.60;65.11;100378.44;5051069;28;1048;-67
2021/07/06 09:23:54;;;;;;;;;;;;;;;26.59;64.55;100377.63;5051096;28;1279;-67
2021/07/06 09:26:40;;;;;;;;;;;;;;;26.60;65.70;100383.78;5051142;28;733;-66
2021/07/06 09:29:26;;;;;;;;;;;;;;;26.57;64.79;100382.25;5050587;28;1231;-67
2021/07/06 09:32:11;;;;;;;;;;;;;;;26.58;65.81;100383.94;5051057;28;679;-66
2021/07/06 09:34:56;;;;;;;;;;;;;;;26.59;64.43;100376.78;5050442;28;1898;-67
2021/07/06 09:37:46;;;;;;;;;;;;;;;26.59;64.17;100382.13;5050870;28;1311;-67
2021/07/06 09:40:42;;;;;;;;;;;;;;;26.60;64.15;100392.63;5051045;28;950;-68
2021/07/06 09:43:28;;;;;;;;;;;;;;;26.62;64.18;100379.16;5050330;28;1263;-67
2021/07/06 09:46:13;;;;;;;;;;;;;;;26.63;63.83;100382.66;5050583;28;695;-67
2021/07/06 09:49:00;;;;;;;;;;;;;;;26.64;64.57;100385.16;5050559;28;1225;-69
2021/07/06 09:52:11;;;;;;;;;;;;;;;26.63;64.45;100382.66;5050541;28;1389;-68
2021/07/06 09:54:56;;;;;;;;;;;;;;;26.65;64.26;100391.38;5050537;28;1914;-68
2021/07/06 09:57:42;;;;;;;;;;;;;;;26.63;64.09;100388.00;5050692;28;1280;-68
2021/07/06 10:00:31;;;;;;;;;;;;;;;26.63;63.97;100387.00;5050501;28;1063;-68
2021/07/06 10:03:17;;;;;;;;;;;;;;;26.63;63.63;100384.31;5050447;28;1355;-67
2021/07/06 10:06:02;;;;;;;;;;;;;;;26.66;64.10;100385.84;5050056;28;628;-67
2021/07/06 10:08:48;;;;;;;;;;;;;;;26.68;64.03;100391.06;5049749;28;1267;-68
2021/07/06 10:11:35;;;;;;;;;;;;;;;26.69;63.83;100390.09;5049784;28;644;-68
2021/07/06 10:14:21;;;;;;;;;;;;;;;26.71;64.53;100388.09;5049519;28;1981;-76
2021/07/06 10:17:06;;;;;;;;;;;;;;;26.70;63.78;100394.44;5046527;28;1459;-74
2021/07/06 10:19:52;;;;;;;;;;;;;;;26.71;64.56;100402.31;5039480;28;1837;-78
2021/07/06 10:22:38;;;;;;;;;;;;;;;26.70;65.04;100394.44;5027709;28;1827;-73
2021/07/06 10:25:33;;;;;;;;;;;;;;;26.75;64.06;100402.88;5027947;28;1091;-74
2021/07/06 10:28:19;;;;;;;;;;;;;;;26.77;64.25;100398.19;5039802;28;1605;-67
2021/07/06 10:31:16;;;;;;;;;;;;;;;26.76;64.47;100396.50;5031924;28;625;-73
2021/07/06 10:34:17;;;;;;;;;;;;;;;26.69;64.87;100388.22;5027464;28;1232;-75
2021/07/06 10:37:18;;;;;;;;;;;;;;;26.53;62.51;100396.06;5034405;28;1613;-73
2021/07/06 10:40:23;;;;;;;;;;;;;;;26.37;61.27;100394.00;5045367;28;973;-70
2021/07/06 10:43:09;;;;;;;;;;;;;;;26.28;60.49;100386.84;5043911;28;1418;-71
2021/07/06 10:45:54;;;;;;;;;;;;;;;26.26;59.20;100387.97;5047046;28;922;-70
2021/07/06 10:48:44;;;;;;;;;;;;;;;26.17;59.76;100387.03;5046496;28;1403;-71
2021/07/06 10:51:39;;;;;;;;;;;;;;;26.04;58.30;100383.78;5037119;28;1468;-66
2021/07/06 10:54:25;;;;;;;;;;;;;;;26.01;58.34;100378.72;5032587;28;1965;-67
2021/07/06 10:57:10;;;;;;;;;;;;;;;25.94;58.42;100381.09;5026336;28;723;-67
2021/07/06 10:59:56;;;;;;;;;;;;;;;26.00;57.87;100379.69;5034576;28;1326;-69
2021/07/06 11:02:41;;;;;;;;;;;;;;;26.00;57.73;100382.38;5037469;28;1634;-68
2021/07/06 11:05:32;;;;;;;;;;;;;;;25.98;57.66;100384.34;5041181;28;1194;-67
2021/07/06 11:08:37;;;;;;;;;;;;;;;25.96;56.96;100379.13;5037311;28;1296;-69
2021/07/06 11:11:35;;;;;;;;;;;;;;;25.94;56.30;100378.44;5044313;28;1259;-67
2021/07/06 11:14:21;;;;;;;;;;;;;;;25.93;56.38;100375.94;5033197;28;1899;-67
2021/07/06 11:17:06;;;;;;;;;;;;;;;25.95;56.21;100371.28;5041548;28;688;-71
2021/07/06 11:19:57;;;;;;;;;;;;;;;25.86;56.43;100377.47;5039861;28;1067;-67
2021/07/06 11:22:55;;;;;;;;;;;;;;;25.90;55.79;100377.03;5026934;28;1308;-65
2021/07/06 11:25:41;;;;;;;;;;;;;;;25.87;55.12;100373.84;5027736;28;1288;-66
2021/07/06 11:28:27;;;;;;;;;;;;;;;25.78;56.42;100374.66;5026532;28;1315;-67
2021/07/06 11:31:16;;;;;;;;;;;;;;;25.78;55.61;100380.84;5026345;28;648;-69
2021/07/06 11:34:04;;;;;;;;;;;;;;;25.72;55.93;100377.88;5026422;28;1236;-74
2021/07/06 11:36:50;;;;;;;;;;;;;;;25.71;55.55;100381.56;5045883;28;1193;-79
2021/07/06 11:39:35;;;;;;;;;;;;;;;25.72;55.59;100384.06;5046446;28;1235;-71
2021/07/06 11:42:28;;;;;;;;;;;;;;;25.65;55.23;100382.13;5045016;28;628;-68
2021/07/06 11:45:13;;;;;;;;;;;;;;;25.71;55.49;100381.56;5045267;28;910;-68
2021/07/06 11:48:05;;;;;;;;;;;;;;;25.74;55.18;100383.94;5045027;28;1370;-70
2021/07/06 11:50:50;;;;;;;;;;;;;;;25.71;55.25;100374.41;5046535;28;1279;-69
2021/07/06 11:53:53;;;;;;;;;;;;;;;25.74;55.44;100376.78;5046480;28;1371;-71
2021/07/06 11:56:47;;;;;;;;;;;;;;;25.74;56.13;100373.28;5045281;28;1989;-67
2021/07/06 11:59:33;;;;;;;;;;;;;;;25.67;55.57;100372.97;5045603;28;1201;-67
2021/07/06 12:02:18;;;;;;;;;;;;;;;25.67;55.20;100378.31;5046088;28;608;-67
2021/07/06 12:05:14;;;;;;;;;;;;;;;25.62;55.22;100382.41;5046677;28;1096;-70
2021/07/06 12:08:10;;;;;;;;;;;;;;;25.69;55.11;100379.00;5048937;28;1347;-74
2021/07/06 12:11:03;;;;;;;;;;;;;;;25.70;55.23;100383.38;5050568;28;1170;-80
2021/07/06 12:13:49;;;;;;;;;;;;;;;25.72;54.61;100388.56;5051867;28;1245;-77
2021/07/06 12:16:37;;;;;;;;;;;;;;;25.70;54.02;100380.72;5052849;28;1969;-77
2021/07/06 12:19:26;;;;;;;;;;;;;;;25.68;54.07;100380.00;5051715;28;1293;-72
2021/07/06 12:22:11;;;;;;;;;;;;;;;25.63;54.21;100386.72;5051121;28;628;-75
2021/07/06 12:24:57;;;;;;;;;;;;;;;25.66;54.17;100373.97;5049259;28;1055;-72
2021/07/06 12:27:42;;;;;;;;;;;;;;;25.68;53.80;100371.16;5049649;28;1291;-71
2021/07/06 12:30:29;;;;;;;;;;;;;;;25.61;54.55;100375.38;5047024;28;1527;-76
2021/07/06 12:33:14;;;;;;;;;;;;;;;25.65;54.20;100374.13;5040651;28;1416;-67
2021/07/06 12:36:00;;;;;;;;;;;;;;;25.58;53.89;100372.97;5029209;28;1902;-71
2021/07/06 12:38:45;;;;;;;;;;;;;;;25.60;54.05;100371.84;5030077;28;1321;-69
2021/07/06 12:41:38;;;;;;;;;;;;;;;25.63;53.89;100373.41;5033245;28;1635;-71
2021/07/06 12:44:32;;;;;;;;;;;;;;;25.60;54.07;100365.66;5049219;28;1296;-66
2021/07/06 12:47:17;;;;;;;;;;;;;;;25.61;54.85;100368.22;5049256;28;672;-73
2021/07/06 12:50:12;;;;;;;;;;;;;;;25.63;53.80;100354.72;5045128;28;1250;-71
2021/07/06 12:53:04;;;;;;;;;;;;;;;25.65;53.36;100363.44;5039039;28;1320;-75
2021/07/06 12:55:49;;;;;;;;;;;;;;;25.65;53.80;100350.97;5030972;28;1903;-70
2021/07/06 12:58:34;;;;;;;;;;;;;;;25.60;53.55;100361.19;5038267;28;1371;-66
2021/07/06 13:01:33;;;;;;;;;;;;;;;25.59;53.48;100361.34;5030254;28;660;-66
2021/07/06 13:04:21;;;;;;;;;;;;;;;25.52;52.70;100359.22;5031310;28;1335;-67
2021/07/06 13:07:07;;;;;;;;;;;;;;;25.54;52.32;100351.06;5031340;28;671;-67
2021/07/06 13:10:19;;;;;;;;;;;;;;;25.46;52.48;100361.59;5031450;28;1048;-72
2021/07/06 13:13:08;;;;;;;;;;;;;;;25.48;52.44;100363.16;5043532;28;1272;-70
2021/07/06 13:15:58;;;;;;;;;;;;;;;25.54;52.88;100365.25;5051215;28;1957;-69
2021/07/06 13:18:47;;;;;;;;;;;;;;;25.51;52.75;100357.53;5049997;28;1233;-76
2021/07/06 13:21:33;;;;;;;;;;;;;;;25.57;52.58;100355.28;5050800;28;727;-71
2021/07/06 13:24:18;;;;;;;;;;;;;;;25.58;52.47;100362.31;5048650;28;1536;-73
2021/07/06 13:27:04;;;;;;;;;;;;;;;25.56;52.65;100362.47;5050867;28;632;-73
2021/07/06 13:29:50;;;;;;;;;;;;;;;25.58;52.61;100362.31;5050563;28;1240;-71
2021/07/06 13:32:39;;;;;;;;;;;;;;;25.56;52.54;100370.47;5050196;28;1248;-69
2021/07/06 13:35:25;;;;;;;;;;;;;;;25.54;52.44;100377.75;5050692;28;1910;-72
2021/07/06 13:38:10;;;;;;;;;;;;;;;25.56;52.45;100374.97;5049360;28;1381;-74
2021/07/06 13:40:56;;;;;;;;;;;;;;;25.58;52.06;100379.16;5050782;28;947;-78
2021/07/06 13:43:41;;;;;;;;;;;;;;;25.59;52.06;100386.19;5050750;28;1276;-78
2021/07/06 13:46:27;;;;;;;;;;;;;;;25.57;51.95;100389.94;5049041;28;746;-73
2021/07/06 13:49:12;;;;;;;;;;;;;;;25.56;52.00;100396.28;5050138;28;1288;-72
2021/07/06 13:51:59;;;;;;;;;;;;;;;25.53;51.46;100397.41;5049419;28;1173;-71
2021/07/06 13:54:44;;;;;;;;;;;;;;;25.51;51.90;100399.34;5049618;28;1292;-70
2021/07/06 13:57:30;;;;;;;;;;;;;;;25.54;51.36;100396.41;5049902;28;1382;-75
2021/07/06 14:00:15;;;;;;;;;;;;;;;25.55;51.52;100390.13;5050169;28;934;-72
2021/07/06 14:03:02;;;;;;;;;;;;;;;25.53;51.36;100387.56;5049902;28;1217;-69
2021/07/06 14:05:47;;;;;;;;;;;;;;;25.54;51.42;100394.59;5049934;28;1494;-76
2021/07/06 14:08:32;;;;;;;;;;;;;;;25.58;51.37;100387.16;5049834;28;1280;-72
2021/07/06 14:11:17;;;;;;;;;;;;;;;25.55;50.98;100384.78;5049638;28;706;-73
2021/07/06 14:14:03;;;;;;;;;;;;;;;25.51;51.22;100384.22;5048417;28;1439;-69
2021/07/06 14:16:52;;;;;;;;;;;;;;;25.49;51.24;100372.00;5049687;28;1898;-73
2021/07/06 14:19:40;;;;;;;;;;;;;;;25.47;51.10;100374.75;5050230;28;1381;-72
2021/07/06 14:22:26;;;;;;;;;;;;;;;25.45;51.00;100378.56;5050282;28;724;-65
2021/07/06 14:25:14;;;;;;;;;;;;;;;25.45;50.93;100383.88;5050653;28;1077;-67
2021/07/06 14:27:59;;;;;;;;;;;;;;;25.46;50.45;100375.75;5049134;28;1264;-67
2021/07/06 14:30:50;;;;;;;;;;;;;;;25.46;51.08;100378.44;5047612;28;1068;-71
2021/07/06 14:33:35;;;;;;;;;;;;;;;25.52;50.33;100369.06;5049726;28;1244;-72